sensor_id;sensor_type;location;lat;lon;timestamp;pressure;altitude;pressure_sealevel;temperature;humidity
78073;BME280;67281;48.770;11.440;2023-04-06T00:00:10;97509.66;;;15.83;37.24
78073;BME280;67281;48.770;11.440;2023-04-06T00:02:37;97508.00;;;15.82;36.85
78073;BME280;67281;48.770;11.440;2023-04-06T00:05:04;97507.28;;;15.80;36.54
78073;BME280;67281;48.770;11.440;2023-04-06T00:07:31;97501.16;;;15.79;36.71
78073;BME280;67281;48.770;11.440;2023-04-06T00:09:59;97495.03;;;15.78;36.47
78073;BME280;67281;48.770;11.440;2023-04-06T00:12:27;97502.28;;;15.76;37.12
78073;BME280;67281;48.770;11.440;2023-04-06T00:14:53;97496.97;;;15.76;37.02
78073;BME280;67281;48.770;11.440;2023-04-06T00:17:20;97493.63;;;15.74;36.80
78073;BME280;67281;48.770;11.440;2023-04-06T00:19:47;97490.16;;;15.74;36.88
78073;BME280;67281;48.770;11.440;2023-04-06T00:22:14;97509.63;;;15.73;36.82
78073;BME280;67281;48.770;11.440;2023-04-06T00:24:41;97499.88;;;15.73;37.25
78073;BME280;67281;48.770;11.440;2023-04-06T00:27:08;97500.16;;;15.70;36.65
78073;BME280;67281;48.770;11.440;2023-04-06T00:29:35;97499.19;;;15.71;36.62
78073;BME280;67281;48.770;11.440;2023-04-06T00:32:03;97500.16;;;15.70;36.59
78073;BME280;67281;48.770;11.440;2023-04-06T00:34:30;97495.97;;;15.68;36.70
78073;BME280;67281;48.770;11.440;2023-04-06T00:36:57;97499.59;;;15.67;37.12
78073;BME280;67281;48.770;11.440;2023-04-06T00:39:24;97501.53;;;15.65;37.07
78073;BME280;67281;48.770;11.440;2023-04-06T00:41:52;97501.53;;;15.65;36.64
78073;BME280;67281;48.770;11.440;2023-04-06T00:44:19;97500.81;;;15.63;36.80
78073;BME280;67281;48.770;11.440;2023-04-06T00:46:47;97497.34;;;15.62;36.55
78073;BME280;67281;48.770;11.440;2023-04-06T00:49:14;97496.50;;;15.62;37.04
78073;BME280;67281;48.770;11.440;2023-04-06T00:51:41;97501.25;;;15.58;36.54
78073;BME280;67281;48.770;11.440;2023-04-06T00:54:07;97493.19;;;15.60;36.89
78073;BME280;67281;48.770;11.440;2023-04-06T00:56:35;97492.34;;;15.59;37.30
78073;BME280;67281;48.770;11.440;2023-04-06T00:59:02;97485.53;;;15.57;36.45
78073;BME280;67281;48.770;11.440;2023-04-06T01:01:29;97489.25;;;15.54;37.10
78073;BME280;67281;48.770;11.440;2023-04-06T01:03:56;97490.91;;;15.55;37.08
78073;BME280;67281;48.770;11.440;2023-04-06T01:06:23;97485.75;;;15.54;37.10
78073;BME280;67281;48.770;11.440;2023-04-06T01:08:50;97486.72;;;15.53;36.81
78073;BME280;67281;48.770;11.440;2023-04-06T01:11:17;97491.19;;;15.52;36.77
78073;BME280;67281;48.770;11.440;2023-04-06T01:13:44;97486.88;;;15.51;36.48
78073;BME280;67281;48.770;11.440;2023-04-06T01:16:11;97491.31;;;15.51;37.03
78073;BME280;67281;48.770;11.440;2023-04-06T01:18:38;97494.09;;;15.49;36.80
78073;BME280;67281;48.770;11.440;2023-04-06T01:21:05;97494.09;;;15.49;36.68
78073;BME280;67281;48.770;11.440;2023-04-06T01:23:35;97484.50;;;15.48;36.78
78073;BME280;67281;48.770;11.440;2023-04-06T01:26:02;97493.50;;;15.45;36.42
78073;BME280;67281;48.770;11.440;2023-04-06T01:28:29;97490.03;;;15.45;36.87
78073;BME280;67281;48.770;11.440;2023-04-06T01:30:56;97490.88;;;15.45;36.82
78073;BME280;67281;48.770;11.440;2023-04-06T01:33:23;97482.25;;;15.43;36.98
78073;BME280;67281;48.770;11.440;2023-04-06T01:35:50;97480.69;;;15.41;37.18
78073;BME280;67281;48.770;11.440;2023-04-06T01:38:17;97482.50;;;15.40;37.24
78073;BME280;67281;48.770;11.440;2023-04-06T01:40:44;97477.34;;;15.39;36.82
78073;BME280;67281;48.770;11.440;2023-04-06T01:43:11;97467.75;;;15.38;36.60
78073;BME280;67281;48.770;11.440;2023-04-06T01:45:38;97466.91;;;15.37;37.12
78073;BME280;67281;48.770;11.440;2023-04-06T01:48:05;97464.16;;;15.39;37.11
78073;BME280;67281;48.770;11.440;2023-04-06T01:50:31;97460.81;;;15.37;36.44
78073;BME280;67281;48.770;11.440;2023-04-06T01:52:58;97473.44;;;15.33;36.88
78073;BME280;67281;48.770;11.440;2023-04-06T01:55:25;97473.31;;;15.35;36.51
78073;BME280;67281;48.770;11.440;2023-04-06T01:57:52;97476.19;;;15.32;36.91
78073;BME280;67281;48.770;11.440;2023-04-06T02:00:19;97472.72;;;15.31;37.08
78073;BME280;67281;48.770;11.440;2023-04-06T02:02:46;97471.88;;;15.31;37.01
78073;BME280;67281;48.770;11.440;2023-04-06T02:05:13;97458.94;;;15.28;36.63
78073;BME280;67281;48.770;11.440;2023-04-06T02:07:40;97466.75;;;15.29;36.67
78073;BME280;67281;48.770;11.440;2023-04-06T02:10:12;97465.78;;;15.30;37.04
78073;BME280;67281;48.770;11.440;2023-04-06T02:12:39;97465.19;;;15.27;36.47
78073;BME280;67281;48.770;11.440;2023-04-06T02:15:06;97474.91;;;15.26;36.85
78073;BME280;67281;48.770;11.440;2023-04-06T02:17:33;97467.13;;;15.25;36.72
78073;BME280;67281;48.770;11.440;2023-04-06T02:20:00;97463.78;;;15.23;36.36
78073;BME280;67281;48.770;11.440;2023-04-06T02:22:27;97468.22;;;15.22;36.45
78073;BME280;67281;48.770;11.440;2023-04-06T02:24:54;97466.56;;;15.21;36.91
78073;BME280;67281;48.770;11.440;2023-04-06T02:27:21;97467.66;;;15.19;36.91
78073;BME280;67281;48.770;11.440;2023-04-06T02:29:47;97459.59;;;15.20;36.57
78073;BME280;67281;48.770;11.440;2023-04-06T02:32:14;97473.63;;;15.21;36.55
78073;BME280;67281;48.770;11.440;2023-04-06T02:34:41;97463.34;;;15.18;36.80
78073;BME280;67281;48.770;11.440;2023-04-06T02:37:08;97467.22;;;15.13;36.94
78073;BME280;67281;48.770;11.440;2023-04-06T02:39:35;97462.63;;;15.16;36.73
78073;BME280;67281;48.770;11.440;2023-04-06T02:42:02;97465.41;;;15.14;37.15
78073;BME280;67281;48.770;11.440;2023-04-06T02:44:29;97457.63;;;15.12;36.58
78073;BME280;67281;48.770;11.440;2023-04-06T02:46:56;97463.72;;;15.13;37.07
78073;BME280;67281;48.770;11.440;2023-04-06T02:49:23;97458.72;;;15.10;37.03
78073;BME280;67281;48.770;11.440;2023-04-06T02:51:49;97454.41;;;15.09;37.08
78073;BME280;67281;48.770;11.440;2023-04-06T02:54:16;97455.38;;;15.08;36.87
78073;BME280;67281;48.770;11.440;2023-04-06T02:56:43;97457.16;;;15.07;36.47
78073;BME280;67281;48.770;11.440;2023-04-06T02:59:10;97451.19;;;15.05;37.02
78073;BME280;67281;48.770;11.440;2023-04-06T03:01:37;97453.81;;;15.05;36.99
78073;BME280;67281;48.770;11.440;2023-04-06T03:04:04;97455.50;;;15.06;37.20
78073;BME280;67281;48.770;11.440;2023-04-06T03:06:31;97456.59;;;15.04;37.19
78073;BME280;67281;48.770;11.440;2023-04-06T03:08:58;97461.88;;;15.04;36.61
78073;BME280;67281;48.770;11.440;2023-04-06T03:11:25;97458.66;;;15.00;36.90
78073;BME280;67281;48.770;11.440;2023-04-06T03:13:53;97455.31;;;14.98;36.81
78073;BME280;67281;48.770;11.440;2023-04-06T03:16:19;97465.03;;;14.98;36.83
78073;BME280;67281;48.770;11.440;2023-04-06T03:18:47;97462.50;;;14.96;36.66
78073;BME280;67281;48.770;11.440;2023-04-06T03:21:14;97460.00;;;14.95;37.11
78073;BME280;67281;48.770;11.440;2023-04-06T03:23:45;97464.44;;;14.94;36.83
78073;BME280;67281;48.770;11.440;2023-04-06T03:26:12;97464.44;;;14.94;36.74
78073;BME280;67281;48.770;11.440;2023-04-06T03:28:39;97462.06;;;14.91;36.73
78073;BME280;67281;48.770;11.440;2023-04-06T03:31:07;97458.59;;;14.91;37.20
78073;BME280;67281;48.770;11.440;2023-04-06T03:33:33;97462.19;;;14.90;36.90
78073;BME280;67281;48.770;11.440;2023-04-06T03:36:00;97467.47;;;14.90;36.90
78073;BME280;67281;48.770;11.440;2023-04-06T03:38:27;97466.75;;;14.88;36.83
78073;BME280;67281;48.770;11.440;2023-04-06T03:40:54;97464.00;;;14.89;37.05
78073;BME280;67281;48.770;11.440;2023-04-06T03:43:21;97469.53;;;14.86;37.12
78073;BME280;67281;48.770;11.440;2023-04-06T03:45:48;97464.25;;;14.86;36.85
78073;BME280;67281;48.770;11.440;2023-04-06T03:48:15;97475.50;;;14.88;36.94
78073;BME280;67281;48.770;11.440;2023-04-06T03:50:42;97471.31;;;14.86;36.53
78073;BME280;67281;48.770;11.440;2023-04-06T03:53:08;97467.06;;;14.85;37.08
78073;BME280;67281;48.770;11.440;2023-04-06T03:55:38;97474.97;;;14.85;37.04
78073;BME280;67281;48.770;11.440;2023-04-06T03:58:06;97475.94;;;14.84;36.89
78073;BME280;67281;48.770;11.440;2023-04-06T04:00:33;97470.06;;;14.80;36.56
78073;BME280;67281;48.770;11.440;2023-04-06T04:03:00;97476.31;;;14.79;36.80
78073;BME280;67281;48.770;11.440;2023-04-06T04:05:28;97479.91;;;14.78;37.10
78073;BME280;67281;48.770;11.440;2023-04-06T04:07:56;97478.38;;;14.75;36.33
78073;BME280;67281;48.770;11.440;2023-04-06T04:10:23;97476.56;;;14.76;37.04
78073;BME280;67281;48.770;11.440;2023-04-06T04:12:49;97483.78;;;14.74;36.57
78073;BME280;67281;48.770;11.440;2023-04-06T04:15:17;97486.53;;;14.72;36.98
78073;BME280;67281;48.770;11.440;2023-04-06T04:17:44;97484.03;;;14.71;36.95
78073;BME280;67281;48.770;11.440;2023-04-06T04:20:13;97490.13;;;14.71;36.76
78073;BME280;67281;48.770;11.440;2023-04-06T04:22:40;97487.75;;;14.68;36.65
78073;BME280;67281;48.770;11.440;2023-04-06T04:25:08;97485.94;;;14.69;37.15
78073;BME280;67281;48.770;11.440;2023-04-06T04:27:35;97483.31;;;14.69;36.40
78073;BME280;67281;48.770;11.440;2023-04-06T04:30:02;97483.44;;;14.67;36.45
78073;BME280;67281;48.770;11.440;2023-04-06T04:32:29;97485.25;;;14.67;36.76
78073;BME280;67281;48.770;11.440;2023-04-06T04:34:56;97480.94;;;14.66;36.72
78073;BME280;67281;48.770;11.440;2023-04-06T04:37:23;97486.72;;;14.60;37.17
78073;BME280;67281;48.770;11.440;2023-04-06T04:39:50;97488.38;;;14.61;36.57
78073;BME280;67281;48.770;11.440;2023-04-06T04:42:16;97491.16;;;14.59;36.84
78073;BME280;67281;48.770;11.440;2023-04-06T04:44:43;97489.34;;;14.60;36.63
78073;BME280;67281;48.770;11.440;2023-04-06T04:47:10;97486.72;;;14.60;36.37
78073;BME280;67281;48.770;11.440;2023-04-06T04:49:37;97487.78;;;14.57;37.02
78073;BME280;67281;48.770;11.440;2023-04-06T04:52:04;97491.28;;;14.58;36.44
78073;BME280;67281;48.770;11.440;2023-04-06T04:54:31;97495.00;;;14.55;36.78
78073;BME280;67281;48.770;11.440;2023-04-06T04:56:57;97495.84;;;14.56;36.73
78073;BME280;67281;48.770;11.440;2023-04-06T04:59:24;97493.19;;;14.56;37.04
78073;BME280;67281;48.770;11.440;2023-04-06T05:01:51;97493.19;;;14.56;36.66
78073;BME280;67281;48.770;11.440;2023-04-06T05:04:21;97501.09;;;14.56;36.69
78073;BME280;67281;48.770;11.440;2023-04-06T05:06:48;97499.56;;;14.53;36.58
78073;BME280;67281;48.770;11.440;2023-04-06T05:09:15;97495.13;;;14.54;36.27
78073;BME280;67281;48.770;11.440;2023-04-06T05:11:44;97502.91;;;14.55;36.91
78073;BME280;67281;48.770;11.440;2023-04-06T05:14:10;97490.81;;;14.53;36.82
78073;BME280;67281;48.770;11.440;2023-04-06T05:16:37;97495.38;;;14.51;36.79
78073;BME280;67281;48.770;11.440;2023-04-06T05:19:04;97492.72;;;14.51;36.35
78073;BME280;67281;48.770;11.440;2023-04-06T05:21:32;97500.66;;;14.51;36.28
78073;BME280;67281;48.770;11.440;2023-04-06T05:23:59;97500.66;;;14.51;36.52
78073;BME280;67281;48.770;11.440;2023-04-06T05:26:26;97502.31;;;14.52;36.42
78073;BME280;67281;48.770;11.440;2023-04-06T05:28:53;97498.13;;;14.49;36.84
78073;BME280;67281;48.770;11.440;2023-04-06T05:31:21;97493.81;;;14.48;36.46
78073;BME280;67281;48.770;11.440;2023-04-06T05:33:48;97495.38;;;14.51;36.70
78073;BME280;67281;48.770;11.440;2023-04-06T05:36:21;97503.28;;;14.51;36.25
78073;BME280;67281;48.770;11.440;2023-04-06T05:38:47;97504.84;;;14.53;36.22
78073;BME280;67281;48.770;11.440;2023-04-06T05:41:16;97503.03;;;14.54;36.68
78073;BME280;67281;48.770;11.440;2023-04-06T05:43:43;97498.84;;;14.51;36.08
78073;BME280;67281;48.770;11.440;2023-04-06T05:46:10;97506.63;;;14.53;36.78
78073;BME280;67281;48.770;11.440;2023-04-06T05:48:37;97503.75;;;14.56;36.70
78073;BME280;67281;48.770;11.440;2023-04-06T05:51:04;97503.75;;;14.56;36.71
78073;BME280;67281;48.770;11.440;2023-04-06T05:53:32;97504.72;;;14.55;36.20
78073;BME280;67281;48.770;11.440;2023-04-06T05:56:03;97510.81;;;14.55;36.55
78073;BME280;67281;48.770;11.440;2023-04-06T05:58:30;97512.63;;;14.55;36.29
78073;BME280;67281;48.770;11.440;2023-04-06T06:00:57;97509.97;;;14.55;36.27
78073;BME280;67281;48.770;11.440;2023-04-06T06:03:24;97512.50;;;14.56;36.53
78073;BME280;67281;48.770;11.440;2023-04-06T06:05:51;97513.31;;;14.57;36.15
78073;BME280;67281;48.770;11.440;2023-04-06T06:08:22;97509.72;;;14.58;36.71
78073;BME280;67281;48.770;11.440;2023-04-06T06:10:49;97515.00;;;14.58;36.50
78073;BME280;67281;48.770;11.440;2023-04-06T06:13:16;97513.91;;;14.60;35.97
78073;BME280;67281;48.770;11.440;2023-04-06T06:15:43;97516.56;;;14.60;36.01
78073;BME280;67281;48.770;11.440;2023-04-06T06:18:10;97514.75;;;14.61;36.53
78073;BME280;67281;48.770;11.440;2023-04-06T06:20:37;97516.44;;;14.62;36.37
78073;BME280;67281;48.770;11.440;2023-04-06T06:23:04;97522.41;;;14.64;36.32
78073;BME280;67281;48.770;11.440;2023-04-06T06:25:34;97520.75;;;14.63;36.49
78073;BME280;67281;48.770;11.440;2023-04-06T06:28:01;97521.69;;;14.62;36.13
78073;BME280;67281;48.770;11.440;2023-04-06T06:30:28;97524.81;;;14.67;36.12
78073;BME280;67281;48.770;11.440;2023-04-06T06:32:55;97530.06;;;14.67;35.91
78073;BME280;67281;48.770;11.440;2023-04-06T06:35:22;97530.78;;;14.69;36.02
78073;BME280;67281;48.770;11.440;2023-04-06T06:37:49;97529.13;;;14.68;36.21
78073;BME280;67281;48.770;11.440;2023-04-06T06:40:16;97525.38;;;14.70;35.78
78073;BME280;67281;48.770;11.440;2023-04-06T06:42:44;97527.91;;;14.72;35.76
78073;BME280;67281;48.770;11.440;2023-04-06T06:45:11;97526.22;;;14.71;36.03
78073;BME280;67281;48.770;11.440;2023-04-06T06:47:38;97526.81;;;14.74;36.09
78073;BME280;67281;48.770;11.440;2023-04-06T06:50:05;97528.47;;;14.75;36.03
78073;BME280;67281;48.770;11.440;2023-04-06T06:52:33;97531.00;;;14.77;35.94
78073;BME280;67281;48.770;11.440;2023-04-06T06:55:02;97527.41;;;14.78;36.06
78073;BME280;67281;48.770;11.440;2023-04-06T06:57:31;97526.56;;;14.77;36.29
78073;BME280;67281;48.770;11.440;2023-04-06T06:59:58;97532.41;;;14.81;35.73
78073;BME280;67281;48.770;11.440;2023-04-06T07:02:26;97534.09;;;14.82;36.21
78073;BME280;67281;48.770;11.440;2023-04-06T07:04:53;97530.50;;;14.83;36.35
78073;BME280;67281;48.770;11.440;2023-04-06T07:07:20;97524.25;;;14.84;36.37
78073;BME280;67281;48.770;11.440;2023-04-06T07:09:47;97523.97;;;14.87;35.62
78073;BME280;67281;48.770;11.440;2023-04-06T07:12:14;97530.22;;;14.86;36.00
78073;BME280;67281;48.770;11.440;2023-04-06T07:14:42;97531.88;;;14.87;35.93
78073;BME280;67281;48.770;11.440;2023-04-06T07:17:09;97525.38;;;14.91;36.11
78073;BME280;67281;48.770;11.440;2023-04-06T07:19:36;97523.59;;;14.92;35.47
78073;BME280;67281;48.770;11.440;2023-04-06T07:22:04;97533.31;;;14.91;35.83
78073;BME280;67281;48.770;11.440;2023-04-06T07:24:31;97526.94;;;14.94;36.17
78073;BME280;67281;48.770;11.440;2023-04-06T07:27:01;97523.34;;;14.95;35.49
78073;BME280;67281;48.770;11.440;2023-04-06T07:29:28;97524.16;;;14.95;35.93
78073;BME280;67281;48.770;11.440;2023-04-06T07:31:55;97526.69;;;14.97;35.99
78073;BME280;67281;48.770;11.440;2023-04-06T07:34:22;97530.16;;;14.97;35.86
78073;BME280;67281;48.770;11.440;2023-04-06T07:36:49;97535.31;;;14.99;35.55
78073;BME280;67281;48.770;11.440;2023-04-06T07:39:16;97537.69;;;15.02;35.59
78073;BME280;67281;48.770;11.440;2023-04-06T07:41:43;97537.81;;;15.00;35.83
78073;BME280;67281;48.770;11.440;2023-04-06T07:44:12;97539.50;;;15.01;35.39
78073;BME280;67281;48.770;11.440;2023-04-06T07:46:45;97542.97;;;15.02;35.39
78073;BME280;67281;48.770;11.440;2023-04-06T07:49:12;97535.88;;;15.02;35.74
78073;BME280;67281;48.770;11.440;2023-04-06T07:51:39;97546.19;;;15.05;36.03
78073;BME280;67281;48.770;11.440;2023-04-06T07:54:06;97537.31;;;15.06;35.41
78073;BME280;67281;48.770;11.440;2023-04-06T07:56:34;97530.94;;;15.09;35.58
78073;BME280;67281;48.770;11.440;2023-04-06T07:59:01;97536.94;;;15.11;35.34
78073;BME280;67281;48.770;11.440;2023-04-06T08:01:29;97538.72;;;15.10;36.08
78073;BME280;67281;48.770;11.440;2023-04-06T08:03:57;97542.06;;;15.12;35.58
78073;BME280;67281;48.770;11.440;2023-04-06T08:06:28;97536.78;;;15.12;35.26
78073;BME280;67281;48.770;11.440;2023-04-06T08:08:55;97543.75;;;15.13;35.75
78073;BME280;67281;48.770;11.440;2023-04-06T08:11:24;97537.50;;;15.15;35.41
78073;BME280;67281;48.770;11.440;2023-04-06T08:13:56;97534.59;;;15.18;35.86
78073;BME280;67281;48.770;11.440;2023-04-06T08:16:24;97530.28;;;15.17;35.81
78073;BME280;67281;48.770;11.440;2023-04-06T08:18:51;97531.00;;;15.19;35.61
78073;BME280;67281;48.770;11.440;2023-04-06T08:21:28;97534.34;;;15.21;35.92
78073;BME280;67281;48.770;11.440;2023-04-06T08:23:55;97536.16;;;15.20;35.58
78073;BME280;67281;48.770;11.440;2023-04-06T08:26:22;97535.31;;;15.20;35.72
78073;BME280;67281;48.770;11.440;2023-04-06T08:28:49;97534.34;;;15.21;35.84
78073;BME280;67281;48.770;11.440;2023-04-06T08:31:16;97540.59;;;15.20;36.12
78073;BME280;67281;48.770;11.440;2023-04-06T08:33:43;97536.16;;;15.20;36.05
78073;BME280;67281;48.770;11.440;2023-04-06T08:36:13;97529.91;;;15.21;35.72
78073;BME280;67281;48.770;11.440;2023-04-06T08:38:41;97530.75;;;15.22;36.07
78073;BME280;67281;48.770;11.440;2023-04-06T08:41:10;97536.16;;;15.20;36.18
78073;BME280;67281;48.770;11.440;2023-04-06T08:43:47;97534.22;;;15.22;35.48
78073;BME280;67281;48.770;11.440;2023-04-06T08:46:15;97536.75;;;15.24;36.11
78073;BME280;67281;48.770;11.440;2023-04-06T08:48:49;97535.91;;;15.23;35.95
78073;BME280;67281;48.770;11.440;2023-04-06T08:51:17;97535.78;;;15.25;35.86
78073;BME280;67281;48.770;11.440;2023-04-06T08:53:45;97532.16;;;15.26;36.10
78073;BME280;67281;48.770;11.440;2023-04-06T08:56:13;97536.47;;;15.27;35.45
78073;BME280;67281;48.770;11.440;2023-04-06T08:58:40;97528.44;;;15.28;35.25
78073;BME280;67281;48.770;11.440;2023-04-06T09:01:11;97537.91;;;15.31;35.29
78073;BME280;67281;48.770;11.440;2023-04-06T09:03:39;97526.38;;;15.32;35.25
78073;BME280;67281;48.770;11.440;2023-04-06T09:06:08;97526.09;;;15.35;35.67
78073;BME280;67281;48.770;11.440;2023-04-06T09:08:37;97527.78;;;15.36;35.21
78073;BME280;67281;48.770;11.440;2023-04-06T09:11:05;97526.69;;;15.38;35.39
78073;BME280;67281;48.770;11.440;2023-04-06T09:13:47;97526.44;;;15.41;35.45
78073;BME280;67281;48.770;11.440;2023-04-06T09:16:15;97532.28;;;15.45;35.71
78073;BME280;67281;48.770;11.440;2023-04-06T09:18:44;97530.47;;;15.45;35.83
78073;BME280;67281;48.770;11.440;2023-04-06T09:21:20;97532.03;;;15.48;35.79
78073;BME280;67281;48.770;11.440;2023-04-06T09:23:59;97536.19;;;15.51;35.32
78073;BME280;67281;48.770;11.440;2023-04-06T09:26:26;97527.19;;;15.53;35.48
78073;BME280;67281;48.770;11.440;2023-04-06T09:28:55;97531.97;;;15.59;35.56
78073;BME280;67281;48.770;11.440;2023-04-06T09:31:25;97529.75;;;15.64;35.49
78073;BME280;67281;48.770;11.440;2023-04-06T09:33:53;97529.63;;;15.66;35.17
78073;BME280;67281;48.770;11.440;2023-04-06T09:36:30;97514.34;;;15.69;35.01
78073;BME280;67281;48.770;11.440;2023-04-06T09:39:00;97517.69;;;15.71;34.85
78073;BME280;67281;48.770;11.440;2023-04-06T09:41:34;97525.47;;;15.73;35.46
78073;BME280;67281;48.770;11.440;2023-04-06T09:46:31;97516.88;;;15.81;35.43
78073;BME280;67281;48.770;11.440;2023-04-06T09:49:12;97511.19;;;15.85;34.89
78073;BME280;67281;48.770;11.440;2023-04-06T09:51:54;97508.56;;;15.85;35.33
78073;BME280;67281;48.770;11.440;2023-04-06T09:54:23;97509.00;;;15.90;34.77
78073;BME280;67281;48.770;11.440;2023-04-06T09:59:44;97503.03;;;15.98;34.98
78073;BME280;67281;48.770;11.440;2023-04-06T10:02:45;97504.44;;;16.02;35.21
78073;BME280;67281;48.770;11.440;2023-04-06T10:05:33;97499.72;;;16.05;34.52
78073;BME280;67281;48.770;11.440;2023-04-06T10:08:09;97501.25;;;16.08;34.70
78073;BME280;67281;48.770;11.440;2023-04-06T10:10:37;97489.44;;;16.12;34.70
78073;BME280;67281;48.770;11.440;2023-04-06T10:13:05;97490.84;;;16.16;34.79
78073;BME280;67281;48.770;11.440;2023-04-06T10:15:33;97480.13;;;16.18;34.60
78073;BME280;67281;48.770;11.440;2023-04-06T10:18:00;97484.31;;;16.20;34.43
78073;BME280;67281;48.770;11.440;2023-04-06T10:20:38;97474.44;;;16.22;34.84
78073;BME280;67281;48.770;11.440;2023-04-06T10:26:16;97472.78;;;16.31;34.42
78073;BME280;67281;48.770;11.440;2023-04-06T10:28:45;97472.66;;;16.32;34.32
78073;BME280;67281;48.770;11.440;2023-04-06T10:31:13;97470.00;;;16.32;35.04
78073;BME280;67281;48.770;11.440;2023-04-06T10:33:41;97472.19;;;16.37;34.90
78073;BME280;67281;48.770;11.440;2023-04-06T10:36:28;97469.97;;;16.42;35.01
78073;BME280;67281;48.770;11.440;2023-04-06T10:39:02;97466.22;;;16.44;34.92
78073;BME280;67281;48.770;11.440;2023-04-06T10:41:43;97462.59;;;16.46;34.65
78073;BME280;67281;48.770;11.440;2023-04-06T10:44:20;97463.03;;;16.51;34.30
78073;BME280;67281;48.770;11.440;2023-04-06T10:46:59;97459.13;;;16.55;34.21
78073;BME280;67281;48.770;11.440;2023-04-06T10:49:29;97455.38;;;16.57;34.43
78073;BME280;67281;48.770;11.440;2023-04-06T10:51:56;97451.47;;;16.61;34.27
78073;BME280;67281;48.770;11.440;2023-04-06T10:54:25;97453.59;;;16.67;34.69
78073;BME280;67281;48.770;11.440;2023-04-06T10:56:56;97441.75;;;16.71;34.84
78073;BME280;67281;48.770;11.440;2023-04-06T10:59:23;97447.59;;;16.75;34.86
78073;BME280;67281;48.770;11.440;2023-04-06T11:01:52;97445.66;;;16.77;34.86
78073;BME280;67281;48.770;11.440;2023-04-06T11:04:20;97434.78;;;16.80;34.92
78073;BME280;67281;48.770;11.440;2023-04-06T11:06:48;97433.53;;;16.84;34.44
78073;BME280;67281;48.770;11.440;2023-04-06T11:09:28;97438.53;;;16.87;34.39
78073;BME280;67281;48.770;11.440;2023-04-06T11:11:56;97429.34;;;16.91;34.91
78073;BME280;67281;48.770;11.440;2023-04-06T11:14:23;97429.59;;;16.98;34.43
78073;BME280;67281;48.770;11.440;2023-04-06T11:16:50;97432.78;;;17.01;34.74
78073;BME280;67281;48.770;11.440;2023-04-06T11:19:18;97425.53;;;17.03;34.51
78073;BME280;67281;48.770;11.440;2023-04-06T11:21:47;97427.91;;;17.06;34.35
78073;BME280;67281;48.770;11.440;2023-04-06T11:26:46;97418.44;;;17.04;34.79
78073;BME280;67281;48.770;11.440;2023-04-06T11:29:17;97414.69;;;16.97;34.55
78073;BME280;67281;48.770;11.440;2023-04-06T11:31:49;97419.00;;;17.07;34.72
78073;BME280;67281;48.770;11.440;2023-04-06T11:34:20;97415.31;;;17.18;34.84
78073;BME280;67281;48.770;11.440;2023-04-06T11:36:58;97408.59;;;17.24;35.22
78073;BME280;67281;48.770;11.440;2023-04-06T11:39:27;97409.53;;;17.32;35.13
78073;BME280;67281;48.770;11.440;2023-04-06T11:41:57;97405.31;;;17.39;33.99
78073;BME280;67281;48.770;11.440;2023-04-06T11:44:43;97406.97;;;17.50;34.48
78073;BME280;67281;48.770;11.440;2023-04-06T11:47:12;97401.38;;;17.53;34.28
78073;BME280;67281;48.770;11.440;2023-04-06T11:49:41;97384.19;;;17.57;34.17
78073;BME280;67281;48.770;11.440;2023-04-06T11:52:19;97387.94;;;17.64;34.62
78073;BME280;67281;48.770;11.440;2023-04-06T11:54:48;97381.91;;;17.72;33.95
78073;BME280;67281;48.770;11.440;2023-04-06T11:57:15;97372.84;;;17.75;34.33
78073;BME280;67281;48.770;11.440;2023-04-06T11:59:43;97372.38;;;17.79;33.81
78073;BME280;67281;48.770;11.440;2023-04-06T12:02:10;97372.88;;;17.83;34.35
78073;BME280;67281;48.770;11.440;2023-04-06T12:04:37;97372.97;;;17.91;34.35
78073;BME280;67281;48.770;11.440;2023-04-06T12:07:04;97373.38;;;17.96;33.60
78073;BME280;67281;48.770;11.440;2023-04-06T12:09:31;97378.38;;;17.99;34.00
78073;BME280;67281;48.770;11.440;2023-04-06T12:11:58;97370.66;;;18.05;34.22
78073;BME280;67281;48.770;11.440;2023-04-06T12:14:25;97363.38;;;18.08;34.06
78073;BME280;67281;48.770;11.440;2023-04-06T12:16:52;97368.69;;;18.08;34.40
78073;BME280;67281;48.770;11.440;2023-04-06T12:19:19;97370.50;;;18.07;34.31
78073;BME280;67281;48.770;11.440;2023-04-06T12:21:45;97375.50;;;18.10;34.59
78073;BME280;67281;48.770;11.440;2023-04-06T12:24:12;97363.28;;;17.99;34.31
78073;BME280;67281;48.770;11.440;2023-04-06T12:26:40;97367.47;;;18.02;34.14
78073;BME280;67281;48.770;11.440;2023-04-06T12:29:07;97361.25;;;17.93;34.79
78073;BME280;67281;48.770;11.440;2023-04-06T12:31:35;97367.81;;;17.89;34.52
78073;BME280;67281;48.770;11.440;2023-04-06T12:34:03;97362.06;;;17.94;34.64
78073;BME280;67281;48.770;11.440;2023-04-06T12:36:30;97361.16;;;17.85;34.69
78073;BME280;67281;48.770;11.440;2023-04-06T12:38:58;97357.31;;;17.80;34.83
78073;BME280;67281;48.770;11.440;2023-04-06T12:41:25;97357.91;;;17.73;34.77
78073;BME280;67281;48.770;11.440;2023-04-06T12:43:52;97358.31;;;17.79;34.57
78073;BME280;67281;48.770;11.440;2023-04-06T12:46:19;97356.84;;;18.02;35.01
78073;BME280;67281;48.770;11.440;2023-04-06T12:48:46;97348.22;;;18.18;34.56
78073;BME280;67281;48.770;11.440;2023-04-06T12:51:13;97354.44;;;18.26;34.68
78073;BME280;67281;48.770;11.440;2023-04-06T12:53:40;97355.72;;;18.40;34.36
78073;BME280;67281;48.770;11.440;2023-04-06T12:56:12;97350.63;;;18.47;34.51
78073;BME280;67281;48.770;11.440;2023-04-06T12:58:40;97348.66;;;18.49;34.44
78073;BME280;67281;48.770;11.440;2023-04-06T13:01:10;97343.34;;;18.49;34.41
78073;BME280;67281;48.770;11.440;2023-04-06T13:03:42;97339.25;;;18.54;34.07
78073;BME280;67281;48.770;11.440;2023-04-06T13:06:10;97342.94;;;18.61;33.47